Time;durP1;ratioP1;P1;durP2;ratioP2;P2;SDS_P1;SDS_P2;PMS_P1;PMS_P2;Temp;Humidity;BMP_temperature;BMP_pressure;BME280_temperature;BME280_humidity;BME280_pressure;Samples;Min_cycle;Max_cycle;Signal;HPM_P1;HPM_P2
2023/01/05 00:01:43;;;;;;;14.70;4.03;;;18.70;67.60;;;;;;4416738;32;20142;-68
2023/01/05 00:04:09;;;;;;;14.20;4.13;;;18.80;67.70;;;;;;4415301;32;20090;-68
2023/01/05 00:06:36;;;;;;;15.73;4.10;;;18.70;67.60;;;;;;4414256;32;20079;-68
2023/01/05 00:09:03;;;;;;;12.10;3.20;;;18.70;67.60;;;;;;4414203;32;20197;-68
2023/01/05 00:22:54;;;;;;;12.40;3.58;;;18.60;67.60;;;;;;4414761;32;20196;-68
2023/01/05 00:25:26;;;;;;;15.43;4.07;;;18.60;67.70;;;;;;4413698;32;20075;-68
2023/01/05 00:27:52;;;;;;;15.32;4.03;;;18.60;67.70;;;;;;4413431;32;20098;-68
2023/01/05 00:30:20;;;;;;;12.90;3.40;;;18.60;67.70;;;;;;4415169;32;20090;-69
2023/01/05 00:32:46;;;;;;;12.38;3.05;;;18.60;67.70;;;;;;4415264;32;20118;-68
2023/01/05 00:35:14;;;;;;;13.70;3.85;;;18.60;67.70;;;;;;4415588;32;20075;-69
2023/01/05 00:37:41;;;;;;;13.40;3.95;;;18.60;67.70;;;;;;4414142;32;20087;-68
2023/01/05 00:40:11;;;;;;;13.27;3.47;;;18.60;67.70;;;;;;4416703;32;20102;-68
2023/01/05 00:42:37;;;;;;;8.75;3.20;;;18.60;67.70;;;;;;4415423;32;20102;-68
2023/01/05 00:45:05;;;;;;;11.68;3.50;;;18.60;67.80;;;;;;4414430;32;20075;-68
2023/01/05 00:47:31;;;;;;;10.88;3.47;;;18.60;67.80;;;;;;4415131;32;20078;-68
2023/01/05 00:49:57;;;;;;;9.82;3.60;;;18.60;67.80;;;;;;4413705;32;20121;-67
2023/01/05 00:52:22;;;;;;;11.88;3.78;;;18.60;67.80;;;;;;4413778;32;20505;-68
2023/01/05 00:54:49;;;;;;;12.38;3.33;;;18.60;67.80;;;;;;4412853;32;20454;-68
2023/01/05 00:57:15;;;;;;;10.23;3.35;;;18.60;67.80;;;;;;4418259;32;20106;-68
2023/01/05 00:59:41;;;;;;;8.80;3.17;;;18.50;67.70;;;;;;4414640;32;20093;-68
2023/01/05 01:02:07;;;;;;;11.27;3.35;;;18.60;67.90;;;;;;4414162;32;20081;-71
2023/01/05 01:04:34;;;;;;;11.73;3.55;;;18.50;67.70;;;;;;4414874;32;20236;-68
2023/01/05 01:07:01;;;;;;;9.27;3.17;;;18.50;67.80;;;;;;4413481;32;20086;-68
2023/01/05 01:09:28;;;;;;;9.57;2.90;;;18.50;67.80;;;;;;4413652;32;20063;-68
2023/01/05 01:11:55;;;;;;;10.85;3.00;;;18.50;67.80;;;;;;4412840;32;20555;-68
2023/01/05 01:14:22;;;;;;;8.98;3.13;;;18.50;67.80;;;;;;4421851;32;20249;-68
2023/01/05 01:16:48;;;;;;;11.57;3.20;;;18.50;67.80;;;;;;4419424;32;20488;-68
2023/01/05 01:19:16;;;;;;;11.48;2.83;;;18.50;67.80;;;;;;4419909;32;20283;-68
2023/01/05 01:21:44;;;;;;;10.20;3.25;;;18.40;67.70;;;;;;4422649;32;20089;-69
2023/01/05 01:24:22;;;;;;;13.65;3.10;;;18.50;67.70;;;;;;4422852;32;20058;-68
2023/01/05 01:26:49;;;;;;;9.50;3.08;;;18.50;67.70;;;;;;4419745;32;20063;-68
2023/01/05 01:29:17;;;;;;;9.43;2.80;;;18.40;67.60;;;;;;4418187;32;20282;-68
2023/01/05 01:31:47;;;;;;;9.20;3.05;;;18.40;67.70;;;;;;4418677;32;20093;-68
2023/01/05 01:34:13;;;;;;;9.45;2.97;;;18.40;67.70;;;;;;4419029;32;20157;-68
2023/01/05 01:36:39;;;;;;;8.55;3.10;;;18.40;67.60;;;;;;4417974;32;20154;-69
2023/01/05 01:39:08;;;;;;;7.68;2.47;;;18.40;67.60;;;;;;4420440;32;20146;-68
2023/01/05 01:41:34;;;;;;;9.20;2.92;;;18.40;67.60;;;;;;4429253;32;20165;-69
2023/01/05 01:44:00;;;;;;;9.88;3.13;;;18.40;67.60;;;;;;4425916;32;20154;-68
2023/01/05 01:46:27;;;;;;;10.63;3.22;;;18.40;67.60;;;;;;4417860;32;20091;-68
2023/01/05 01:49:09;;;;;;;11.95;2.72;;;18.40;67.60;;;;;;4419334;32;20176;-68
2023/01/05 01:51:40;;;;;;;8.63;2.55;;;18.40;67.50;;;;;;4425347;32;20152;-67
2023/01/05 01:54:09;;;;;;;7.32;2.33;;;18.40;67.60;;;;;;4433171;32;20108;-68
2023/01/05 01:56:45;;;;;;;7.60;2.38;;;18.40;67.50;;;;;;4431169;32;20684;-68
2023/01/05 01:59:12;;;;;;;9.05;2.58;;;18.40;67.50;;;;;;4433267;32;20066;-68
2023/01/05 02:01:39;;;;;;;7.30;2.33;;;18.40;67.50;;;;;;4433364;32;20483;-68
2023/01/05 02:04:06;;;;;;;9.32;2.53;;;18.30;67.40;;;;;;4433378;32;20478;-67
2023/01/05 02:06:45;;;;;;;7.55;2.60;;;18.40;67.50;;;;;;4432537;32;20126;-68
2023/01/05 02:09:11;;;;;;;7.15;2.50;;;18.30;67.50;;;;;;4433377;32;20076;-67
2023/01/05 02:12:03;;;;;;;7.78;2.42;;;18.40;67.50;;;;;;4433311;32;20203;-68
2023/01/05 02:15:15;;;;;;;8.20;2.42;;;18.30;67.30;;;;;;4433001;32;20629;-68
2023/01/05 02:18:14;;;;;;;8.77;2.72;;;18.30;67.30;;;;;;4420412;32;20201;-69
2023/01/05 02:21:08;;;;;;;7.40;2.50;;;18.30;67.30;;;;;;4431819;32;20086;-68
2023/01/05 02:23:54;;;;;;;8.73;2.50;;;18.30;67.30;;;;;;4432700;32;20220;-68
2023/01/05 02:26:20;;;;;;;6.07;1.83;;;18.30;67.30;;;;;;4430931;32;20090;-68
2023/01/05 02:29:14;;;;;;;8.05;2.65;;;18.30;67.30;;;;;;4430019;32;20165;-68
2023/01/05 02:31:56;;;;;;;8.40;2.78;;;18.30;67.30;;;;;;4431789;32;20397;-68
2023/01/05 02:34:51;;;;;;;8.63;2.45;;;18.30;67.30;;;;;;4432452;32;20140;-68
2023/01/05 02:37:35;;;;;;;9.07;2.50;;;18.30;67.30;;;;;;4427616;32;20083;-68
2023/01/05 02:40:20;;;;;;;;;;;18.20;67.20;;;;;;4419613;32;20233;-68
2023/01/05 02:42:49;;;;;;;8.77;2.50;;;18.20;67.20;;;;;;4416726;32;20026;-67
2023/01/05 02:45:16;;;;;;;7.78;2.80;;;18.20;67.30;;;;;;4416500;32;20562;-68
2023/01/05 02:47:43;;;;;;;8.32;2.38;;;18.20;67.30;;;;;;4414471;32;20213;-68
2023/01/05 02:50:36;;;;;;;7.10;2.47;;;18.20;67.30;;;;;;4415422;32;20493;-68
2023/01/05 02:53:14;;;;;;;8.43;2.67;;;18.20;67.20;;;;;;4408048;32;20126;-68
2023/01/05 02:56:01;;;;;;;7.45;2.20;;;18.20;67.30;;;;;;4416371;32;20196;-68
2023/01/05 02:58:33;;;;;;;7.10;2.30;;;18.20;67.20;;;;;;4416391;32;20232;-69
2023/01/05 03:01:13;;;;;;;7.63;2.40;;;18.20;67.20;;;;;;4417532;32;20090;-68
2023/01/05 03:03:54;;;;;;;6.90;2.00;;;18.20;67.20;;;;;;4415678;32;20071;-68
2023/01/05 03:06:29;;;;;;;7.82;2.45;;;18.20;67.20;;;;;;4415333;32;20071;-68
2023/01/05 03:08:58;;;;;;;8.15;2.63;;;18.20;67.20;;;;;;4414993;32;20221;-68
2023/01/05 03:14:53;;;;;;;6.10;1.95;;;18.20;67.20;;;;;;4417883;32;20074;-68
2023/01/05 03:17:33;;;;;;;6.97;2.67;;;18.20;67.20;;;;;;4416242;32;20086;-67
2023/01/05 03:20:00;;;;;;;7.18;2.20;;;18.20;67.10;;;;;;4415363;32;20220;-69
2023/01/05 03:37:07;;;;;;;6.85;2.08;;;18.10;67.10;;;;;;4413976;32;20071;-68
2023/01/05 03:39:36;;;;;;;7.95;2.20;;;18.10;67.10;;;;;;4416005;32;20165;-68
2023/01/05 03:42:03;;;;;;;6.82;2.30;;;18.10;67.10;;;;;;4420099;32;20106;-68
2023/01/05 03:44:29;;;;;;;8.85;2.20;;;18.10;67.10;;;;;;4420712;32;20085;-68
2023/01/05 03:46:55;;;;;;;7.28;1.98;;;18.00;67.00;;;;;;4425734;32;20114;-68
2023/01/05 03:49:21;;;;;;;6.18;2.08;;;18.00;67.10;;;;;;4430278;32;20085;-68
2023/01/05 03:51:47;;;;;;;7.32;2.38;;;18.00;67.00;;;;;;4429984;32;20070;-67
2023/01/05 03:54:13;;;;;;;7.72;2.30;;;18.00;67.00;;;;;;4418417;32;20082;-68
2023/01/05 03:56:38;;;;;;;8.93;2.30;;;18.10;67.10;;;;;;4413748;32;20180;-68
2023/01/05 03:59:04;;;;;;;8.50;2.38;;;18.10;67.00;;;;;;4417251;32;20097;-68
2023/01/05 04:01:36;;;;;;;7.35;1.90;;;18.10;67.00;;;;;;4415294;32;20097;-68
2023/01/05 04:04:02;;;;;;;5.63;1.90;;;18.10;67.00;;;;;;4417965;32;20508;-70
2023/01/05 04:06:28;;;;;;;9.93;2.33;;;18.10;67.00;;;;;;4414456;32;20081;-67
2023/01/05 04:08:54;;;;;;;7.88;2.28;;;18.10;66.90;;;;;;4424773;32;20182;-67
2023/01/05 04:11:22;;;;;;;6.65;2.08;;;18.10;66.90;;;;;;4422652;32;20093;-67
2023/01/05 04:13:49;;;;;;;9.98;2.63;;;18.10;66.90;;;;;;4429717;32;20082;-67
2023/01/05 04:16:16;;;;;;;5.63;1.60;;;18.10;67.00;;;;;;4429686;32;20122;-67
2023/01/05 04:18:42;;;;;;;7.72;2.60;;;18.10;67.00;;;;;;4429579;32;20523;-68
2023/01/05 04:21:08;;;;;;;7.13;2.22;;;18.10;67.00;;;;;;4429540;32;20074;-67
2023/01/05 04:23:35;;;;;;;6.75;2.00;;;18.10;66.90;;;;;;4422505;32;20133;-69
2023/01/05 04:26:05;;;;;;;9.40;2.60;;;18.10;67.00;;;;;;4429590;32;20535;-68
2023/01/05 04:28:31;;;;;;;6.53;2.15;;;18.10;67.10;;;;;;4429480;32;20176;-69
2023/01/05 04:30:57;;;;;;;5.68;1.90;;;18.00;67.10;;;;;;4429605;32;20472;-67
2023/01/05 04:33:23;;;;;;;7.07;2.17;;;18.00;67.10;;;;;;4429437;32;20058;-68
2023/01/05 04:35:50;;;;;;;8.13;2.40;;;18.00;67.20;;;;;;4429315;32;20491;-67
2023/01/05 04:38:16;;;;;;;8.75;2.13;;;18.00;67.10;;;;;;4429528;32;20220;-67
2023/01/05 04:40:47;;;;;;;5.53;2.03;;;18.00;67.10;;;;;;4429245;32;20185;-68
2023/01/05 04:43:13;;;;;;;4.85;1.58;;;18.00;67.10;;;;;;4429744;32;20113;-67
2023/01/05 04:45:39;;;;;;;7.82;2.15;;;18.00;67.10;;;;;;4429008;32;20062;-69
2023/01/05 04:48:05;;;;;;;9.05;2.45;;;18.00;67.10;;;;;;4429029;32;20156;-68
2023/01/05 04:50:31;;;;;;;5.68;1.92;;;18.00;67.10;;;;;;4429086;32;20197;-68
2023/01/05 04:52:56;;;;;;;7.25;2.42;;;18.00;67.10;;;;;;4429031;32;20634;-67
2023/01/05 04:55:22;;;;;;;9.18;2.10;;;17.90;67.10;;;;;;4429244;32;20551;-70
2023/01/05 04:57:48;;;;;;;7.10;2.10;;;17.90;67.00;;;;;;4428895;32;20067;-68
2023/01/05 05:00:14;;;;;;;5.85;2.22;;;17.90;67.00;;;;;;4429441;32;20161;-67
2023/01/05 05:02:40;;;;;;;7.43;2.17;;;17.90;67.00;;;;;;4429086;32;20086;-68
2023/01/05 05:05:07;;;;;;;7.78;2.28;;;17.90;67.00;;;;;;4429126;32;20153;-68
2023/01/05 05:07:32;;;;;;;6.47;2.50;;;17.90;67.00;;;;;;4429323;32;20484;-67
2023/01/05 05:09:58;;;;;;;7.57;2.05;;;17.90;67.00;;;;;;4429520;32;20212;-68
2023/01/05 05:12:24;;;;;;;6.15;2.08;;;17.90;67.00;;;;;;4429126;32;20069;-72
2023/01/05 05:14:50;;;;;;;6.75;2.30;;;17.90;67.00;;;;;;4429251;32;20523;-68
2023/01/05 05:17:16;;;;;;;5.82;2.20;;;17.90;67.00;;;;;;4428963;32;20093;-67
2023/01/05 05:19:42;;;;;;;6.05;1.80;;;17.80;66.90;;;;;;4428963;32;20058;-67
2023/01/05 05:22:08;;;;;;;5.72;2.15;;;17.80;66.90;;;;;;4429264;32;20156;-68
2023/01/05 05:24:34;;;;;;;5.88;2.13;;;17.80;67.00;;;;;;4428951;32;20058;-68
2023/01/05 05:27:00;;;;;;;8.27;2.28;;;17.80;67.00;;;;;;4428988;32;20082;-68
2023/01/05 05:29:26;;;;;;;5.82;1.90;;;17.80;67.00;;;;;;4428851;32;20255;-68
2023/01/05 05:31:52;;;;;;;8.77;2.15;;;17.80;66.90;;;;;;4415143;32;20070;-68
2023/01/05 05:34:18;;;;;;;6.22;2.15;;;17.80;67.00;;;;;;4429007;32;20090;-67
2023/01/05 05:36:44;;;;;;;6.80;2.03;;;17.80;67.00;;;;;;4428902;32;20115;-68
2023/01/05 05:39:14;;;;;;;7.38;2.20;;;17.80;67.00;;;;;;4429109;32;20071;-68
2023/01/05 05:41:41;;;;;;;7.72;1.92;;;17.80;67.00;;;;;;4429186;32;20078;-68
2023/01/05 05:44:07;;;;;;;9.00;2.35;;;17.80;67.00;;;;;;4428953;32;20102;-67
2023/01/05 05:46:33;;;;;;;6.40;2.05;;;17.80;66.90;;;;;;4428912;32;20086;-67
2023/01/05 05:48:59;;;;;;;8.55;2.35;;;17.80;66.90;;;;;;4428822;32;20059;-68
2023/01/05 05:51:26;;;;;;;5.50;1.95;;;17.80;67.00;;;;;;4428816;32;20133;-68
2023/01/05 05:53:52;;;;;;;9.18;2.00;;;17.80;66.90;;;;;;4428462;32;20096;-68
2023/01/05 05:56:18;;;;;;;7.28;2.08;;;17.80;66.90;;;;;;4428600;32;20236;-69
2023/01/05 05:58:44;;;;;;;6.35;2.13;;;17.80;67.00;;;;;;4428849;32;20250;-67
2023/01/05 06:01:10;;;;;;;6.30;1.67;;;17.70;66.90;;;;;;4430007;32;20078;-67
2023/01/05 06:03:37;;;;;;;6.57;2.00;;;17.80;66.90;;;;;;4431821;32;20496;-68
2023/01/05 06:06:03;;;;;;;6.20;1.77;;;17.70;66.90;;;;;;4431572;32;20082;-67
2023/01/05 06:08:29;;;;;;;5.25;2.10;;;17.80;66.90;;;;;;4431703;32;20428;-68
2023/01/05 06:10:55;;;;;;;6.53;1.75;;;17.70;66.90;;;;;;4432726;32;20082;-68
2023/01/05 06:13:24;;;;;;;7.88;2.20;;;17.70;66.90;;;;;;4431596;32;20078;-68
2023/01/05 06:15:50;;;;;;;7.82;2.60;;;17.70;66.90;;;;;;4431372;32;20083;-68
2023/01/05 06:18:17;;;;;;;4.93;1.80;;;17.70;66.90;;;;;;4431741;32;20225;-67
2023/01/05 06:20:43;;;;;;;7.78;2.45;;;17.70;66.90;;;;;;4431557;32;20223;-68
2023/01/05 06:23:09;;;;;;;7.15;2.08;;;17.70;66.90;;;;;;4431102;32;20067;-68
2023/01/05 06:25:35;;;;;;;7.90;2.00;;;17.70;66.90;;;;;;4431506;32;20156;-67
2023/01/05 06:28:01;;;;;;;6.28;1.85;;;17.70;66.90;;;;;;4431338;32;20132;-68
2023/01/05 06:30:27;;;;;;;8.07;1.80;;;17.70;66.90;;;;;;4417352;32;20212;-68
2023/01/05 06:32:54;;;;;;;6.82;2.25;;;17.70;66.90;;;;;;4431400;32;20172;-67
2023/01/05 06:35:20;;;;;;;5.63;2.08;;;17.70;66.90;;;;;;4417238;32;20150;-68
2023/01/05 06:37:45;;;;;;;6.55;2.15;;;17.60;66.80;;;;;;4431325;32;20102;-67
2023/01/05 06:40:12;;;;;;;6.13;1.90;;;17.60;66.90;;;;;;4431134;32;20054;-67
2023/01/05 06:42:38;;;;;;;7.68;2.35;;;17.70;66.90;;;;;;4431306;32;20137;-67
2023/01/05 06:45:06;;;;;;;6.40;1.92;;;17.60;66.80;;;;;;4431273;32;20500;-67
2023/01/05 06:47:32;;;;;;;4.25;1.60;;;17.70;67.00;;;;;;4430621;32;20090;-67
2023/01/05 06:49:57;;;;;;;5.88;2.17;;;17.70;66.90;;;;;;4431150;32;20077;-67
2023/01/05 06:52:24;;;;;;;7.32;2.10;;;17.70;66.90;;;;;;4430867;32;20240;-67
2023/01/05 06:54:49;;;;;;;7.63;1.92;;;17.70;66.90;;;;;;4430783;32;20395;-67
2023/01/05 06:57:17;;;;;;;6.30;1.88;;;17.60;66.90;;;;;;4430574;32;20279;-67
2023/01/05 06:59:43;;;;;;;6.22;1.95;;;17.60;66.80;;;;;;4431094;32;20141;-67
2023/01/05 07:02:13;;;;;;;4.80;1.60;;;17.60;66.90;;;;;;4417294;32;20074;-67
2023/01/05 07:04:48;;;;;;;4.78;1.67;;;17.60;66.90;;;;;;4431098;32;20074;-67
2023/01/05 07:07:14;;;;;;;5.22;1.88;;;17.60;66.80;;;;;;4417122;32;20476;-67
2023/01/05 07:09:40;;;;;;;7.00;2.30;;;17.60;66.90;;;;;;4430531;32;20074;-68
2023/01/05 07:12:07;;;;;;;7.65;2.33;;;17.60;66.90;;;;;;4430594;32;20185;-67
2023/01/05 07:14:33;;;;;;;6.32;2.10;;;17.60;66.90;;;;;;4430495;32;20496;-67
2023/01/05 07:16:59;;;;;;;6.68;2.15;;;17.60;66.90;;;;;;4430596;32;20229;-67
2023/01/05 07:19:26;;;;;;;4.82;1.65;;;17.60;66.90;;;;;;4430556;32;20114;-67
2023/01/05 07:21:52;;;;;;;6.00;1.70;;;17.60;66.90;;;;;;4430747;32;20085;-67
2023/01/05 07:24:22;;;;;;;5.45;2.13;;;17.50;66.80;;;;;;4430411;32;20078;-67
2023/01/05 07:26:48;;;;;;;5.78;2.17;;;17.60;66.90;;;;;;4430791;32;20122;-67
2023/01/05 07:29:15;;;;;;;6.22;1.90;;;17.60;66.90;;;;;;4430525;32;20163;-67
2023/01/05 07:31:41;;;;;;;5.90;2.20;;;17.50;66.80;;;;;;4430529;32;20078;-67
2023/01/05 07:34:08;;;;;;;6.70;2.25;;;17.60;66.90;;;;;;4430367;32;20097;-67
2023/01/05 07:36:35;;;;;;;8.32;2.60;;;17.50;66.80;;;;;;4416575;32;20385;-68
2023/01/05 07:39:20;;;;;;;6.38;1.98;;;17.50;66.80;;;;;;4418913;32;20389;-67
2023/01/05 07:42:06;;;;;;;6.07;2.00;;;17.50;66.90;;;;;;4418567;32;20137;-67
2023/01/05 07:44:52;;;;;;;5.25;1.52;;;17.50;66.90;;;;;;4418880;32;20591;-68
2023/01/05 07:47:38;;;;;;;5.28;1.65;;;17.50;66.90;;;;;;4418696;32;20097;-68
2023/01/05 07:50:24;;;;;;;8.07;2.25;;;17.50;66.80;;;;;;4418533;32;20097;-69
2023/01/05 07:53:09;;;;;;;10.00;1.88;;;17.50;66.80;;;;;;4408063;32;20566;-68
2023/01/05 07:55:57;;;;;;;8.45;1.83;;;17.50;66.70;;;;;;4416075;32;20086;-68
2023/01/05 07:58:25;;;;;;;7.53;2.13;;;17.50;66.70;;;;;;4443397;32;20109;-68
2023/01/05 08:00:51;;;;;;;5.43;1.75;;;17.60;66.90;;;;;;4440948;32;20224;-68
2023/01/05 08:03:17;;;;;;;7.00;1.77;;;17.60;67.00;;;;;;4443458;32;20524;-67
2023/01/05 08:05:43;;;;;;;6.13;1.70;;;17.70;66.90;;;;;;4440882;32;20081;-68
2023/01/05 08:08:09;;;;;;;7.13;1.83;;;17.80;66.80;;;;;;4443620;32;20089;-68
2023/01/05 08:10:38;;;;;;;6.68;1.75;;;17.90;66.50;;;;;;4441601;32;20160;-68
2023/01/05 08:15:51;;;;;;;6.63;1.83;;;18.20;65.80;;;;;;4440735;32;20070;-68
2023/01/05 08:18:18;;;;;;;5.07;1.63;;;18.30;65.30;;;;;;4443034;32;20136;-67
2023/01/05 08:20:51;;;;;;;6.47;1.73;;;18.50;65.00;;;;;;4441754;32;20081;-68
2023/01/05 08:23:17;;;;;;;6.55;2.17;;;18.70;64.60;;;;;;4441959;32;20305;-68
2023/01/05 08:25:43;;;;;;;7.57;1.67;;;18.80;64.10;;;;;;4442451;32;20526;-68
2023/01/05 08:28:09;;;;;;;4.07;1.48;;;19.00;63.80;;;;;;4441356;32;20066;-68
2023/01/05 08:30:46;;;;;;;5.88;1.95;;;19.10;63.40;;;;;;4437377;32;20105;-68
2023/01/05 08:33:12;;;;;;;3.50;1.17;;;19.20;63.20;;;;;;4429649;32;20067;-68
2023/01/05 08:35:44;;;;;;;4.60;1.55;;;19.30;62.90;;;;;;4426394;32;20394;-67
2023/01/05 08:38:10;;;;;;;5.53;1.45;;;19.40;62.80;;;;;;4420479;32;20540;-69
2023/01/05 08:40:46;;;;;;;3.92;1.60;;;19.40;62.70;;;;;;4418887;32;20150;-68
2023/01/05 08:43:12;;;;;;;5.20;1.48;;;19.40;62.70;;;;;;4415676;32;20161;-68
2023/01/05 08:45:51;;;;;;;4.40;1.30;;;19.40;62.60;;;;;;4416229;32;20106;-69
2023/01/05 08:48:17;;;;;;;7.13;2.00;;;19.40;62.70;;;;;;4413180;32;20206;-68
2023/01/05 08:50:43;;;;;;;4.80;1.52;;;19.40;62.70;;;;;;4417901;32;20072;-68
2023/01/05 08:53:09;;;;;;;4.07;1.42;;;19.40;62.80;;;;;;4417181;32;20073;-73
2023/01/05 08:55:35;;;;;;;3.53;1.52;;;19.40;62.80;;;;;;4420535;32;20085;-68
2023/01/05 08:58:05;;;;;;;6.00;1.65;;;19.40;62.80;;;;;;4441883;32;20524;-67
2023/01/05 09:00:32;;;;;;;6.40;1.60;;;19.40;62.80;;;;;;4438635;32;20509;-68
2023/01/05 09:02:58;;;;;;;4.35;1.55;;;19.40;62.90;;;;;;4441924;32;20093;-68
2023/01/05 09:05:24;;;;;;;3.67;1.33;;;19.40;62.90;;;;;;4440197;32;20492;-67
2023/01/05 09:07:50;;;;;;;3.60;1.10;;;19.50;62.90;;;;;;4440587;32;20503;-68
2023/01/05 09:10:16;;;;;;;3.20;1.40;;;19.50;63.00;;;;;;4427844;32;20621;-68
2023/01/05 09:12:42;;;;;;;5.80;1.40;;;19.50;63.00;;;;;;4438814;32;20085;-68
2023/01/05 09:15:08;;;;;;;4.63;1.65;;;19.50;62.90;;;;;;4441642;32;20074;-68
2023/01/05 09:17:37;;;;;;;4.40;1.50;;;19.50;63.00;;;;;;4438732;32;20516;-68
2023/01/05 09:20:04;;;;;;;11.40;1.48;;;19.50;63.00;;;;;;4441982;32;20074;-68
2023/01/05 09:22:31;;;;;;;7.07;1.30;;;19.50;63.00;;;;;;4439281;32;20074;-67
2023/01/05 09:24:57;;;;;;;3.22;1.23;;;19.50;63.00;;;;;;4440966;32;20120;-67
2023/01/05 09:27:23;;;;;;;3.97;1.23;;;19.50;63.00;;;;;;4440960;32;20066;-68
2023/01/05 09:29:49;;;;;;;3.28;1.10;;;19.50;63.00;;;;;;4439558;32;20441;-68
2023/01/05 09:32:15;;;;;;;9.40;1.40;;;19.50;62.90;;;;;;4429274;32;20393;-68
2023/01/05 09:34:41;;;;;;;2.95;1.25;;;19.50;62.90;;;;;;4429776;32;20141;-68
2023/01/05 09:37:08;;;;;;;3.17;1.00;;;19.50;62.90;;;;;;4432037;32;20101;-67
2023/01/05 09:39:34;;;;;;;4.70;1.65;;;19.50;62.90;;;;;;4432013;32;20082;-68
2023/01/05 09:42:06;;;;;;;3.28;1.30;;;19.50;62.90;;;;;;4422624;32;20090;-67
2023/01/05 09:44:40;;;;;;;5.30;1.40;;;19.50;62.90;;;;;;4418952;32;20555;-67
2023/01/05 09:47:36;;;;;;;4.35;1.25;;;19.50;63.00;;;;;;4420374;32;20087;-67
2023/01/05 09:50:07;;;;;;;5.38;1.50;;;19.50;63.00;;;;;;4417743;32;20130;-67
2023/01/05 09:52:34;;;;;;;3.72;1.50;;;19.50;63.00;;;;;;4417758;32;20145;-67
2023/01/05 09:55:18;;;;;;;4.75;1.65;;;19.50;62.90;;;;;;4418126;32;20504;-67
2023/01/05 09:57:52;;;;;;;5.97;1.20;;;19.50;62.90;;;;;;4424189;32;20385;-67
2023/01/05 10:00:20;;;;;;;3.22;1.15;;;19.50;63.00;;;;;;4426224;32;20506;-67
2023/01/05 10:02:53;;;;;;;3.45;1.40;;;19.50;63.00;;;;;;4431633;32;20094;-67
2023/01/05 10:05:21;;;;;;;3.92;1.40;;;19.50;63.80;;;;;;4425452;32;20082;-67
2023/01/05 10:07:50;;;;;;;3.83;1.20;;;19.50;62.90;;;;;;4431465;32;20184;-67
2023/01/05 10:10:44;;;;;;;4.38;1.20;;;19.50;63.00;;;;;;4431327;32;20522;-67
2023/01/05 10:13:27;;;;;;;3.47;1.30;;;19.60;63.20;;;;;;4431645;32;20082;-66
2023/01/05 10:15:56;;;;;;;5.03;1.13;;;19.60;63.20;;;;;;4431425;32;20243;-67
2023/01/05 10:18:28;;;;;;;6.25;1.52;;;19.50;63.10;;;;;;4431419;32;20192;-67
2023/01/05 10:21:13;;;;;;;3.35;1.30;;;19.50;63.10;;;;;;4431405;32;20089;-68
2023/01/05 10:24:05;;;;;;;4.35;1.23;;;19.50;63.20;;;;;;4431035;32;20552;-67
2023/01/05 10:26:43;;;;;;;7.07;1.30;;;19.50;63.30;;;;;;4431237;32;20085;-67
2023/01/05 10:29:15;;;;;;;4.40;1.20;;;19.50;63.30;;;;;;4425267;32;20405;-66
2023/01/05 10:32:07;;;;;;;4.65;1.20;;;19.50;63.30;;;;;;4431154;32;20083;-67
2023/01/05 10:34:59;;;;;;;3.05;1.27;;;19.50;63.50;;;;;;4420427;32;20432;-67
2023/01/05 10:37:33;;;;;;;5.55;1.30;;;19.50;63.50;;;;;;4420820;32;20169;-67
2023/01/05 10:40:20;;;;;;;3.15;1.08;;;19.50;63.60;;;;;;4431226;32;20101;-67
2023/01/05 10:43:11;;;;;;;4.30;1.00;;;19.50;63.70;;;;;;4422212;32;20075;-67
2023/01/05 10:45:39;;;;;;;4.53;1.17;;;19.50;63.70;;;;;;4431192;32;20512;-68
2023/01/05 10:48:15;;;;;;;3.20;1.10;;;19.50;63.80;;;;;;4430829;32;20074;-67
2023/01/05 10:50:43;;;;;;;5.38;1.50;;;19.50;63.90;;;;;;4431001;32;20082;-67
2023/01/05 10:53:22;;;;;;;3.65;1.17;;;19.50;63.90;;;;;;4430970;32;20397;-67
2023/01/05 10:56:05;;;;;;;4.47;1.38;;;19.50;63.90;;;;;;4418704;32;20079;-67
2023/01/05 10:58:37;;;;;;;5.20;1.35;;;19.60;64.00;;;;;;4425734;32;20078;-68
2023/01/05 11:01:12;;;;;;;3.50;1.20;;;19.60;64.00;;;;;;4432567;32;20262;-67
2023/01/05 11:03:45;;;;;;;4.35;1.00;;;19.60;64.10;;;;;;4431880;32;20094;-67
2023/01/05 11:06:37;;;;;;;3.42;1.08;;;19.60;64.10;;;;;;4432455;32;20170;-67
2023/01/05 11:09:10;;;;;;;3.85;1.27;;;19.60;64.10;;;;;;4430248;32;20373;-67
2023/01/05 11:11:36;;;;;;;2.95;1.00;;;19.60;64.10;;;;;;4422343;32;20168;-68
2023/01/05 11:14:05;;;;;;;3.45;1.10;;;19.60;64.20;;;;;;4431499;32;20086;-67
2023/01/05 11:16:34;;;;;;;5.82;0.95;;;19.60;64.20;;;;;;4428726;32;20165;-67
2023/01/05 11:19:08;;;;;;;2.72;0.80;;;19.60;64.20;;;;;;4422851;32;20118;-67
2023/01/05 11:21:34;;;;;;;3.75;1.20;;;19.60;64.30;;;;;;4431810;32;20216;-67
2023/01/05 11:24:02;;;;;;;3.97;1.27;;;19.60;64.30;;;;;;4430528;32;20101;-67
2023/01/05 11:26:46;;;;;;;3.80;1.23;;;19.60;64.30;;;;;;4429179;32;20102;-67
2023/01/05 11:29:17;;;;;;;2.50;1.10;;;19.60;64.40;;;;;;4430117;32;20621;-67
2023/01/05 11:31:48;;;;;;;3.67;1.17;;;19.60;64.40;;;;;;4430606;32;20154;-70
2023/01/05 11:34:26;;;;;;;3.90;1.05;;;19.60;64.40;;;;;;4430515;32;20077;-67
2023/01/05 11:37:00;;;;;;;3.88;1.33;;;19.60;64.50;;;;;;4430488;32;20070;-67
2023/01/05 11:39:39;;;;;;;2.75;0.95;;;19.60;64.60;;;;;;4430318;32;20093;-67
2023/01/05 11:42:19;;;;;;;3.33;1.00;;;19.60;64.60;;;;;;4430661;32;20212;-67
2023/01/05 11:44:50;;;;;;;3.10;1.13;;;19.60;64.70;;;;;;4429895;32;20074;-67
2023/01/05 11:47:42;;;;;;;2.22;0.90;;;19.60;64.70;;;;;;4432921;32;20137;-67
2023/01/05 11:50:08;;;;;;;3.92;1.33;;;19.50;64.70;;;;;;4430750;32;20137;-67
2023/01/05 11:52:49;;;;;;;2.75;1.08;;;19.50;64.80;;;;;;4431050;32;20541;-67
2023/01/05 11:55:33;;;;;;;2.17;0.95;;;19.50;64.80;;;;;;4429972;32;20078;-67
2023/01/05 11:58:25;;;;;;;1.98;0.80;;;19.50;64.80;;;;;;4434942;32;20059;-68
2023/01/05 12:01:10;;;;;;;3.05;0.95;;;19.50;64.80;;;;;;4428485;32;20094;-67
2023/01/05 12:03:45;;;;;;;2.88;1.00;;;19.50;64.90;;;;;;4429510;32;20089;-67
2023/01/05 12:06:20;;;;;;;2.45;0.88;;;19.50;64.80;;;;;;4429450;32;20504;-67
2023/01/05 12:09:02;;;;;;;2.10;0.95;;;19.50;64.80;;;;;;4429501;32;20590;-67
2023/01/05 12:11:38;;;;;;;2.35;0.77;;;19.60;64.90;;;;;;4428342;32;20101;-68
2023/01/05 12:14:42;;;;;;;2.15;0.82;;;19.60;64.90;;;;;;4429497;32;20078;-67
2023/01/05 12:17:28;;;;;;;2.47;1.00;;;19.60;64.80;;;;;;4426163;32;20172;-68
2023/01/05 12:20:03;;;;;;;3.47;0.98;;;19.60;64.90;;;;;;4405582;32;20165;-67
2023/01/05 12:23:01;;;;;;;3.20;1.00;;;19.60;64.90;;;;;;4427822;32;20248;-67
2023/01/05 12:25:39;;;;;;;4.05;1.00;;;19.60;64.90;;;;;;4415098;32;20100;-71
2023/01/05 12:28:30;;;;;;;3.08;0.82;;;19.60;65.00;;;;;;4421527;32;20201;-74
2023/01/05 12:31:24;;;;;;;7.03;1.05;;;19.60;64.90;;;;;;4422303;32;20091;-74
2023/01/05 12:34:03;;;;;;;3.63;1.10;;;19.60;64.90;;;;;;4423253;32;20169;-75
2023/01/05 12:36:55;;;;;;;3.75;0.90;;;19.60;65.00;;;;;;4420677;32;20082;-72
2023/01/05 12:40:01;;;;;;;1.83;0.70;;;19.60;65.00;;;;;;4414185;32;20079;-74
2023/01/05 12:42:54;;;;;;;3.58;1.00;;;19.60;65.00;;;;;;4417818;32;20122;-75
2023/01/05 12:45:35;;;;;;;2.58;0.82;;;19.60;65.00;;;;;;4417368;32;20209;-70
2023/01/05 12:48:28;;;;;;;1.83;0.77;;;19.60;65.90;;;;;;4422750;32;20066;-69
2023/01/05 12:51:17;;;;;;;4.25;1.00;;;19.60;65.10;;;;;;4429250;32;20086;-70
2023/01/05 12:54:00;;;;;;;3.25;0.80;;;19.60;65.10;;;;;;4429240;32;20204;-70
2023/01/05 12:56:45;;;;;;;3.22;0.80;;;19.60;65.10;;;;;;4419953;32;20245;-70
2023/01/05 12:59:32;;;;;;;4.63;1.25;;;19.60;65.10;;;;;;4428846;32;20136;-70
2023/01/05 13:02:25;;;;;;;4.05;0.80;;;19.60;65.10;;;;;;4429353;32;20112;-70
2023/01/05 13:05:10;;;;;;;5.93;1.38;;;19.60;65.10;;;;;;4429341;32;20428;-70
2023/01/05 13:07:57;;;;;;;2.22;0.77;;;19.60;65.40;;;;;;4429145;32;20235;-70
2023/01/05 13:10:35;;;;;;;2.17;0.60;;;19.60;65.40;;;;;;4429312;32;20216;-69
2023/01/05 13:13:09;;;;;;;3.13;0.85;;;19.60;65.30;;;;;;4429309;32;20075;-68
2023/01/05 13:15:53;;;;;;;;;;;19.60;65.30;;;;;;4429355;32;20523;-68
2023/01/05 13:18:21;;;;;;;2.08;0.90;;;19.60;65.30;;;;;;4425449;32;19986;-69
2023/01/05 13:20:56;;;;;;;2.55;0.70;;;19.70;65.30;;;;;;4428853;32;20121;-68
2023/01/05 13:23:29;;;;;;;3.03;0.95;;;19.70;65.40;;;;;;4427781;32;20082;-69
2023/01/05 13:26:04;;;;;;;4.20;0.98;;;19.70;65.30;;;;;;4428771;32;20106;-68
2023/01/05 13:28:30;;;;;;;3.85;1.13;;;19.70;65.20;;;;;;4426293;32;20086;-69
2023/01/05 13:31:25;;;;;;;3.03;1.08;;;19.70;65.30;;;;;;4416252;32;20082;-68
2023/01/05 13:34:29;;;;;;;2.50;1.00;;;19.70;65.40;;;;;;4415171;32;20079;-68
2023/01/05 13:36:57;;;;;;;2.60;0.70;;;19.70;65.40;;;;;;4428873;32;20070;-68
2023/01/05 13:39:44;;;;;;;5.57;0.82;;;19.70;65.50;;;;;;4426939;32;20079;-68
2023/01/05 13:42:14;;;;;;;3.85;0.80;;;19.70;65.50;;;;;;4403204;32;20544;-70
2023/01/05 13:44:58;;;;;;;2.53;0.82;;;19.70;65.60;;;;;;4421070;32;20084;-68